Terminal Aerodrome Forecast
Issued by NWS Brownsville, TX

Home | Current Version | Previous Version | Text Only | Print | Product List | Glossary On
Versions: 1 2 3 4 5 6 7 8 9 10 11 12 13 14 15
000
FTUS44 KBRO 302320
TAFMFE
TAF
KMFE 302320Z 0100/0124 14012G18KT P6SM SCT040 BKN250
     FM010300 12005KT P6SM VCTS SCT030 BKN040CB
      TEMPO 0109/0112 P6SM -TSRA SCT020 BKN030CB
     FM011200 13012KT P6SM VCTS SCT020 BKN030CB
      TEMPO 0112/0115 4SM TSRA BR BKN020CB
     FM011800 13015KT P6SM VCTS SCT030 BKN040CB PROB30 0118/0124 4SM
      TSRA BR SCT015 BKN030CB=

USA.gov is the U.S. government's official web portal to all federal, state and local government web resources and services.